Terminal Aerodrome Forecast
Issued by NWS Rapid City, SD

Home | Current Version | Previous Version | Graphics & Text | Print | Product List | Glossary On
Versions: 1 2 3 4 5 6 7 8 9 10 11 12 13 14 15 16 17 18 19 20 21 22 23 24
000
FTUS43 KUNR 231100
TAFRAP
TAF
KRAP 231120Z 2312/2412 18008KT P6SM SCT080
     FM231500 15012G20KT P6SM SKC
     FM232200 13011KT P6SM VCTS SCT080CB
     FM240000 12009KT P6SM VCTS BKN080CB
      TEMPO 2400/2404 3SM TSRA OVC070CB
     FM240800 16006KT P6SM SCT150=

USA.gov is the U.S. government's official web portal to all federal, state and local government web resources and services.